sensor_id;sensor_type;location;lat;lon;timestamp;temperature;humidity
11824;DHT22;5969;50.780;7.726;2022-08-04T00:02:14;19.00;99.90
11824;DHT22;5969;50.780;7.726;2022-08-04T00:04:48;19.00;99.90
11824;DHT22;5969;50.780;7.726;2022-08-04T00:07:18;18.90;99.90
11824;DHT22;5969;50.780;7.726;2022-08-04T00:09:49;18.80;99.90
11824;DHT22;5969;50.780;7.726;2022-08-04T00:12:19;18.90;99.90
11824;DHT22;5969;50.780;7.726;2022-08-04T00:14:50;18.80;99.90
11824;DHT22;5969;50.780;7.726;2022-08-04T00:17:22;18.70;99.90
11824;DHT22;5969;50.780;7.726;2022-08-04T00:19:54;18.70;99.90
11824;DHT22;5969;50.780;7.726;2022-08-04T00:22:22;18.70;99.90
11824;DHT22;5969;50.780;7.726;2022-08-04T00:24:52;18.80;99.90
11824;DHT22;5969;50.780;7.726;2022-08-04T00:27:20;18.50;99.90
11824;DHT22;5969;50.780;7.726;2022-08-04T00:29:49;18.50;99.90
11824;DHT22;5969;50.780;7.726;2022-08-04T00:32:17;18.50;99.90
11824;DHT22;5969;50.780;7.726;2022-08-04T00:34:45;18.50;99.90
11824;DHT22;5969;50.780;7.726;2022-08-04T00:37:12;18.50;99.90
11824;DHT22;5969;50.780;7.726;2022-08-04T00:39:41;18.40;99.90
11824;DHT22;5969;50.780;7.726;2022-08-04T00:42:33;18.40;99.90
11824;DHT22;5969;50.780;7.726;2022-08-04T00:45:15;18.20;99.90
11824;DHT22;5969;50.780;7.726;2022-08-04T00:48:01;18.20;99.90
11824;DHT22;5969;50.780;7.726;2022-08-04T00:50:39;18.20;99.90
11824;DHT22;5969;50.780;7.726;2022-08-04T00:53:13;18.10;99.90
11824;DHT22;5969;50.780;7.726;2022-08-04T00:55:56;18.00;99.90
11824;DHT22;5969;50.780;7.726;2022-08-04T00:58:41;18.00;99.90
11824;DHT22;5969;50.780;7.726;2022-08-04T01:01:18;18.00;99.90
11824;DHT22;5969;50.780;7.726;2022-08-04T01:03:50;17.90;99.90
11824;DHT22;5969;50.780;7.726;2022-08-04T01:06:33;17.90;99.90
11824;DHT22;5969;50.780;7.726;2022-08-04T01:09:16;17.90;99.90
11824;DHT22;5969;50.780;7.726;2022-08-04T01:11:56;17.90;99.90
11824;DHT22;5969;50.780;7.726;2022-08-04T01:14:44;17.80;99.90
11824;DHT22;5969;50.780;7.726;2022-08-04T01:17:19;17.80;99.90
11824;DHT22;5969;50.780;7.726;2022-08-04T01:19:56;17.80;99.90
11824;DHT22;5969;50.780;7.726;2022-08-04T01:25:44;17.80;99.90
11824;DHT22;5969;50.780;7.726;2022-08-04T01:28:27;17.80;99.90
11824;DHT22;5969;50.780;7.726;2022-08-04T01:31:00;17.80;99.90
11824;DHT22;5969;50.780;7.726;2022-08-04T01:33:29;17.80;99.90
11824;DHT22;5969;50.780;7.726;2022-08-04T01:36:00;17.70;99.90
11824;DHT22;5969;50.780;7.726;2022-08-04T01:38:33;17.70;99.90
11824;DHT22;5969;50.780;7.726;2022-08-04T01:41:03;17.70;99.90
11824;DHT22;5969;50.780;7.726;2022-08-04T01:43:33;17.70;99.90
11824;DHT22;5969;50.780;7.726;2022-08-04T01:46:03;17.80;99.90
11824;DHT22;5969;50.780;7.726;2022-08-04T01:48:30;17.70;99.90
11824;DHT22;5969;50.780;7.726;2022-08-04T01:51:03;17.60;99.90
11824;DHT22;5969;50.780;7.726;2022-08-04T01:53:32;17.50;99.90
11824;DHT22;5969;50.780;7.726;2022-08-04T01:56:00;17.40;99.90
11824;DHT22;5969;50.780;7.726;2022-08-04T01:58:29;17.40;99.90
11824;DHT22;5969;50.780;7.726;2022-08-04T02:00:58;17.40;99.90
11824;DHT22;5969;50.780;7.726;2022-08-04T02:03:28;17.40;99.90
11824;DHT22;5969;50.780;7.726;2022-08-04T02:06:09;17.40;99.90
11824;DHT22;5969;50.780;7.726;2022-08-04T02:08:42;17.30;99.90
11824;DHT22;5969;50.780;7.726;2022-08-04T02:11:15;17.20;99.90
11824;DHT22;5969;50.780;7.726;2022-08-04T02:13:52;17.20;99.90
11824;DHT22;5969;50.780;7.726;2022-08-04T02:16:28;17.00;99.90
11824;DHT22;5969;50.780;7.726;2022-08-04T02:19:01;17.00;99.90
11824;DHT22;5969;50.780;7.726;2022-08-04T02:21:31;16.90;99.90
11824;DHT22;5969;50.780;7.726;2022-08-04T02:24:00;16.80;99.90
11824;DHT22;5969;50.780;7.726;2022-08-04T02:26:28;16.80;99.90
11824;DHT22;5969;50.780;7.726;2022-08-04T02:29:03;16.80;99.90
11824;DHT22;5969;50.780;7.726;2022-08-04T02:31:31;16.80;99.90
11824;DHT22;5969;50.780;7.726;2022-08-04T02:34:06;16.80;99.90
11824;DHT22;5969;50.780;7.726;2022-08-04T02:36:36;16.80;99.90
11824;DHT22;5969;50.780;7.726;2022-08-04T02:39:04;16.70;99.90
11824;DHT22;5969;50.780;7.726;2022-08-04T02:41:32;16.80;99.90
11824;DHT22;5969;50.780;7.726;2022-08-04T02:44:01;16.70;99.90
11824;DHT22;5969;50.780;7.726;2022-08-04T02:46:29;16.70;99.90
11824;DHT22;5969;50.780;7.726;2022-08-04T02:48:56;16.70;99.90
11824;DHT22;5969;50.780;7.726;2022-08-04T02:51:28;16.60;99.90
11824;DHT22;5969;50.780;7.726;2022-08-04T02:53:57;16.60;99.90
11824;DHT22;5969;50.780;7.726;2022-08-04T02:56:27;16.60;99.90
11824;DHT22;5969;50.780;7.726;2022-08-04T02:58:58;16.50;99.90
11824;DHT22;5969;50.780;7.726;2022-08-04T03:01:25;16.50;99.90
11824;DHT22;5969;50.780;7.726;2022-08-04T03:04:05;16.50;99.90
11824;DHT22;5969;50.780;7.726;2022-08-04T03:06:58;16.50;99.90
11824;DHT22;5969;50.780;7.726;2022-08-04T03:10:04;16.50;99.90
11824;DHT22;5969;50.780;7.726;2022-08-04T03:13:15;16.40;99.90
11824;DHT22;5969;50.780;7.726;2022-08-04T03:16:09;16.40;99.90
11824;DHT22;5969;50.780;7.726;2022-08-04T03:19:09;16.40;99.90
11824;DHT22;5969;50.780;7.726;2022-08-04T03:31:03;16.20;99.90
11824;DHT22;5969;50.780;7.726;2022-08-04T03:33:41;16.20;99.90
11824;DHT22;5969;50.780;7.726;2022-08-04T03:36:37;16.20;99.90
11824;DHT22;5969;50.780;7.726;2022-08-04T03:40:01;16.10;99.90
11824;DHT22;5969;50.780;7.726;2022-08-04T03:42:50;16.10;99.90
11824;DHT22;5969;50.780;7.726;2022-08-04T03:48:58;16.00;99.90
11824;DHT22;5969;50.780;7.726;2022-08-04T03:51:40;16.00;99.90
11824;DHT22;5969;50.780;7.726;2022-08-04T03:54:56;16.00;99.90
11824;DHT22;5969;50.780;7.726;2022-08-04T03:57:56;15.80;99.90
11824;DHT22;5969;50.780;7.726;2022-08-04T04:00:29;15.80;99.90
11824;DHT22;5969;50.780;7.726;2022-08-04T04:06:40;15.90;99.90
11824;DHT22;5969;50.780;7.726;2022-08-04T04:09:27;15.90;99.90
11824;DHT22;5969;50.780;7.726;2022-08-04T04:12:30;16.00;99.90
11824;DHT22;5969;50.780;7.726;2022-08-04T04:15:18;15.90;99.90
11824;DHT22;5969;50.780;7.726;2022-08-04T04:20:55;15.80;99.90
11824;DHT22;5969;50.780;7.726;2022-08-04T04:23:30;15.80;99.90
11824;DHT22;5969;50.780;7.726;2022-08-04T04:26:06;15.70;99.90
11824;DHT22;5969;50.780;7.726;2022-08-04T04:28:58;15.70;99.90
11824;DHT22;5969;50.780;7.726;2022-08-04T04:31:42;15.70;99.90
11824;DHT22;5969;50.780;7.726;2022-08-04T04:34:24;15.80;99.90
11824;DHT22;5969;50.780;7.726;2022-08-04T04:37:05;15.80;99.90
11824;DHT22;5969;50.780;7.726;2022-08-04T04:39:42;15.90;99.90
11824;DHT22;5969;50.780;7.726;2022-08-04T04:42:37;15.90;99.90
11824;DHT22;5969;50.780;7.726;2022-08-04T04:45:14;15.90;99.90
11824;DHT22;5969;50.780;7.726;2022-08-04T04:47:53;16.00;99.90
11824;DHT22;5969;50.780;7.726;2022-08-04T04:50:29;16.20;99.90
11824;DHT22;5969;50.780;7.726;2022-08-04T04:53:02;16.20;99.90
11824;DHT22;5969;50.780;7.726;2022-08-04T04:55:34;16.20;99.90
11824;DHT22;5969;50.780;7.726;2022-08-04T04:58:07;16.30;99.90
11824;DHT22;5969;50.780;7.726;2022-08-04T05:01:07;16.40;99.90
11824;DHT22;5969;50.780;7.726;2022-08-04T05:03:47;16.50;99.90
11824;DHT22;5969;50.780;7.726;2022-08-04T05:06:33;16.50;99.90
11824;DHT22;5969;50.780;7.726;2022-08-04T05:09:15;16.60;99.90
11824;DHT22;5969;50.780;7.726;2022-08-04T05:14:55;16.50;99.90
11824;DHT22;5969;50.780;7.726;2022-08-04T05:17:26;16.50;99.90
11824;DHT22;5969;50.780;7.726;2022-08-04T05:19:59;16.60;99.90
11824;DHT22;5969;50.780;7.726;2022-08-04T05:22:30;16.60;99.90
11824;DHT22;5969;50.780;7.726;2022-08-04T05:25:03;16.70;99.90
11824;DHT22;5969;50.780;7.726;2022-08-04T05:27:36;16.80;99.90
11824;DHT22;5969;50.780;7.726;2022-08-04T05:30:05;17.00;99.90
11824;DHT22;5969;50.780;7.726;2022-08-04T05:32:40;17.10;99.90
11824;DHT22;5969;50.780;7.726;2022-08-04T05:35:13;17.30;99.90
11824;DHT22;5969;50.780;7.726;2022-08-04T05:37:43;17.40;99.90
11824;DHT22;5969;50.780;7.726;2022-08-04T05:40:12;17.50;99.90
11824;DHT22;5969;50.780;7.726;2022-08-04T05:42:40;17.60;99.90
11824;DHT22;5969;50.780;7.726;2022-08-04T05:45:08;17.70;99.90
11824;DHT22;5969;50.780;7.726;2022-08-04T05:47:36;17.80;99.90
11824;DHT22;5969;50.780;7.726;2022-08-04T05:50:04;17.90;99.90
11824;DHT22;5969;50.780;7.726;2022-08-04T05:52:35;18.00;99.90
11824;DHT22;5969;50.780;7.726;2022-08-04T05:55:04;18.00;99.90
11824;DHT22;5969;50.780;7.726;2022-08-04T05:57:32;18.00;99.90
11824;DHT22;5969;50.780;7.726;2022-08-04T06:00:02;18.10;99.90
11824;DHT22;5969;50.780;7.726;2022-08-04T06:02:30;18.20;99.90
11824;DHT22;5969;50.780;7.726;2022-08-04T06:05:00;18.20;99.90
11824;DHT22;5969;50.780;7.726;2022-08-04T06:07:27;18.40;99.90
11824;DHT22;5969;50.780;7.726;2022-08-04T06:09:55;18.50;99.90
11824;DHT22;5969;50.780;7.726;2022-08-04T06:12:24;18.60;99.90
11824;DHT22;5969;50.780;7.726;2022-08-04T06:14:53;18.80;99.90
11824;DHT22;5969;50.780;7.726;2022-08-04T06:17:23;19.00;99.90
11824;DHT22;5969;50.780;7.726;2022-08-04T06:19:52;19.30;99.90
11824;DHT22;5969;50.780;7.726;2022-08-04T06:22:21;19.50;99.90
11824;DHT22;5969;50.780;7.726;2022-08-04T06:24:50;19.70;99.90
11824;DHT22;5969;50.780;7.726;2022-08-04T06:27:19;19.80;99.90
11824;DHT22;5969;50.780;7.726;2022-08-04T06:29:50;19.90;99.90
11824;DHT22;5969;50.780;7.726;2022-08-04T06:32:21;20.10;99.90
11824;DHT22;5969;50.780;7.726;2022-08-04T06:34:56;20.20;99.90
11824;DHT22;5969;50.780;7.726;2022-08-04T06:37:25;20.30;99.90
11824;DHT22;5969;50.780;7.726;2022-08-04T06:39:52;20.40;99.90
11824;DHT22;5969;50.780;7.726;2022-08-04T06:42:25;20.50;99.90
11824;DHT22;5969;50.780;7.726;2022-08-04T06:44:56;20.60;99.90
11824;DHT22;5969;50.780;7.726;2022-08-04T06:47:24;20.80;99.90
11824;DHT22;5969;50.780;7.726;2022-08-04T06:49:53;20.90;99.90
11824;DHT22;5969;50.780;7.726;2022-08-04T06:52:21;21.10;99.90
11824;DHT22;5969;50.780;7.726;2022-08-04T06:54:50;21.20;99.90
11824;DHT22;5969;50.780;7.726;2022-08-04T06:57:21;21.40;99.90
11824;DHT22;5969;50.780;7.726;2022-08-04T06:59:53;21.60;99.90
11824;DHT22;5969;50.780;7.726;2022-08-04T07:02:25;21.80;99.90
11824;DHT22;5969;50.780;7.726;2022-08-04T07:04:52;22.00;99.90
11824;DHT22;5969;50.780;7.726;2022-08-04T07:07:19;22.20;99.90
11824;DHT22;5969;50.780;7.726;2022-08-04T07:09:47;22.30;99.90
11824;DHT22;5969;50.780;7.726;2022-08-04T07:12:15;22.60;99.90
11824;DHT22;5969;50.780;7.726;2022-08-04T07:14:45;22.80;99.90
11824;DHT22;5969;50.780;7.726;2022-08-04T07:17:14;23.00;99.90
11824;DHT22;5969;50.780;7.726;2022-08-04T07:19:42;23.20;99.90
11824;DHT22;5969;50.780;7.726;2022-08-04T07:22:10;23.40;99.90
11824;DHT22;5969;50.780;7.726;2022-08-04T07:24:38;23.50;99.90
11824;DHT22;5969;50.780;7.726;2022-08-04T07:27:07;23.80;99.90
11824;DHT22;5969;50.780;7.726;2022-08-04T07:29:34;23.90;99.90
11824;DHT22;5969;50.780;7.726;2022-08-04T07:32:02;24.20;99.90
11824;DHT22;5969;50.780;7.726;2022-08-04T07:34:32;24.50;99.90
11824;DHT22;5969;50.780;7.726;2022-08-04T07:36:59;24.70;99.90
11824;DHT22;5969;50.780;7.726;2022-08-04T07:39:28;24.90;99.90
11824;DHT22;5969;50.780;7.726;2022-08-04T07:41:58;25.20;99.90
11824;DHT22;5969;50.780;7.726;2022-08-04T07:44:25;25.50;99.90
11824;DHT22;5969;50.780;7.726;2022-08-04T07:46:53;25.70;99.90
11824;DHT22;5969;50.780;7.726;2022-08-04T07:49:20;25.90;99.90
11824;DHT22;5969;50.780;7.726;2022-08-04T07:51:48;26.00;99.90
11824;DHT22;5969;50.780;7.726;2022-08-04T07:54:16;26.20;99.90
11824;DHT22;5969;50.780;7.726;2022-08-04T07:56:44;26.40;99.90
11824;DHT22;5969;50.780;7.726;2022-08-04T07:59:13;26.50;99.90
11824;DHT22;5969;50.780;7.726;2022-08-04T08:01:41;26.50;99.90
11824;DHT22;5969;50.780;7.726;2022-08-04T08:04:09;26.70;99.90
11824;DHT22;5969;50.780;7.726;2022-08-04T08:06:37;26.90;99.90
11824;DHT22;5969;50.780;7.726;2022-08-04T08:09:10;27.00;99.90
11824;DHT22;5969;50.780;7.726;2022-08-04T08:11:37;27.10;99.90
11824;DHT22;5969;50.780;7.726;2022-08-04T08:14:05;27.30;99.90
11824;DHT22;5969;50.780;7.726;2022-08-04T08:16:33;27.40;99.90
11824;DHT22;5969;50.780;7.726;2022-08-04T08:19:00;27.60;99.90
11824;DHT22;5969;50.780;7.726;2022-08-04T08:21:28;27.80;99.90
11824;DHT22;5969;50.780;7.726;2022-08-04T08:23:55;27.80;99.90
11824;DHT22;5969;50.780;7.726;2022-08-04T08:26:23;27.90;99.90
11824;DHT22;5969;50.780;7.726;2022-08-04T08:28:50;28.00;99.90
11824;DHT22;5969;50.780;7.726;2022-08-04T08:31:18;28.00;99.90
11824;DHT22;5969;50.780;7.726;2022-08-04T08:33:45;28.20;99.90
11824;DHT22;5969;50.780;7.726;2022-08-04T08:36:17;28.50;99.90
11824;DHT22;5969;50.780;7.726;2022-08-04T08:38:52;28.60;99.90
11824;DHT22;5969;50.780;7.726;2022-08-04T08:47:26;28.80;99.90
11824;DHT22;5969;50.780;7.726;2022-08-04T08:50:07;28.90;99.90
11824;DHT22;5969;50.780;7.726;2022-08-04T08:52:57;29.20;99.90
11824;DHT22;5969;50.780;7.726;2022-08-04T08:55:39;29.50;99.90
11824;DHT22;5969;50.780;7.726;2022-08-04T08:58:33;29.60;99.90
11824;DHT22;5969;50.780;7.726;2022-08-04T09:01:09;29.80;99.90
11824;DHT22;5969;50.780;7.726;2022-08-04T09:06:46;30.20;99.90
11824;DHT22;5969;50.780;7.726;2022-08-04T09:12:35;30.70;99.90
11824;DHT22;5969;50.780;7.726;2022-08-04T09:15:12;30.80;99.40
11824;DHT22;5969;50.780;7.726;2022-08-04T09:17:44;30.90;99.10
11824;DHT22;5969;50.780;7.726;2022-08-04T09:20:20;31.00;99.00
11824;DHT22;5969;50.780;7.726;2022-08-04T09:22:50;31.20;97.60
11824;DHT22;5969;50.780;7.726;2022-08-04T09:25:21;31.20;97.30
11824;DHT22;5969;50.780;7.726;2022-08-04T09:27:51;31.50;96.40
11824;DHT22;5969;50.780;7.726;2022-08-04T09:30:22;31.60;96.20
11824;DHT22;5969;50.780;7.726;2022-08-04T09:32:57;31.70;95.60
11824;DHT22;5969;50.780;7.726;2022-08-04T09:35:36;31.80;96.20
11824;DHT22;5969;50.780;7.726;2022-08-04T09:38:12;31.90;95.30
11824;DHT22;5969;50.780;7.726;2022-08-04T09:40:47;31.90;95.40
11824;DHT22;5969;50.780;7.726;2022-08-04T09:43:23;32.00;95.40
11824;DHT22;5969;50.780;7.726;2022-08-04T09:45:59;32.20;93.80
11824;DHT22;5969;50.780;7.726;2022-08-04T09:48:34;32.20;94.10
11824;DHT22;5969;50.780;7.726;2022-08-04T09:51:10;32.30;94.20
11824;DHT22;5969;50.780;7.726;2022-08-04T09:53:49;32.30;93.50
11824;DHT22;5969;50.780;7.726;2022-08-04T09:56:22;32.20;93.30
11824;DHT22;5969;50.780;7.726;2022-08-04T09:59:00;32.40;93.20
11824;DHT22;5969;50.780;7.726;2022-08-04T10:01:34;32.50;92.50
11824;DHT22;5969;50.780;7.726;2022-08-04T10:04:05;32.60;92.30
11824;DHT22;5969;50.780;7.726;2022-08-04T10:07:08;32.80;92.30
11824;DHT22;5969;50.780;7.726;2022-08-04T10:09:49;33.00;92.20
11824;DHT22;5969;50.780;7.726;2022-08-04T10:12:29;33.20;91.60
11824;DHT22;5969;50.780;7.726;2022-08-04T10:15:05;33.40;91.40
11824;DHT22;5969;50.780;7.726;2022-08-04T10:17:44;33.50;92.00
11824;DHT22;5969;50.780;7.726;2022-08-04T10:20:25;33.60;90.50
11824;DHT22;5969;50.780;7.726;2022-08-04T10:23:00;33.40;90.60
11824;DHT22;5969;50.780;7.726;2022-08-04T10:25:37;33.50;90.40
11824;DHT22;5969;50.780;7.726;2022-08-04T10:28:10;33.60;89.10
11824;DHT22;5969;50.780;7.726;2022-08-04T10:30:45;33.70;89.20
11824;DHT22;5969;50.780;7.726;2022-08-04T10:33:22;33.70;89.20
11824;DHT22;5969;50.780;7.726;2022-08-04T10:35:53;33.80;89.50
11824;DHT22;5969;50.780;7.726;2022-08-04T10:38:24;34.00;88.40
11824;DHT22;5969;50.780;7.726;2022-08-04T10:40:57;34.10;88.70
11824;DHT22;5969;50.780;7.726;2022-08-04T10:43:38;34.40;88.30
11824;DHT22;5969;50.780;7.726;2022-08-04T10:46:09;34.10;87.00
11824;DHT22;5969;50.780;7.726;2022-08-04T10:48:42;33.90;87.80
11824;DHT22;5969;50.780;7.726;2022-08-04T10:51:20;33.90;87.60
11824;DHT22;5969;50.780;7.726;2022-08-04T10:53:54;33.70;87.10
11824;DHT22;5969;50.780;7.726;2022-08-04T10:56:28;33.70;86.70
11824;DHT22;5969;50.780;7.726;2022-08-04T10:59:01;33.70;87.10
11824;DHT22;5969;50.780;7.726;2022-08-04T11:01:32;33.90;87.00
11824;DHT22;5969;50.780;7.726;2022-08-04T11:04:04;34.10;88.30
11824;DHT22;5969;50.780;7.726;2022-08-04T11:06:33;34.30;86.30
11824;DHT22;5969;50.780;7.726;2022-08-04T11:09:02;34.50;85.60
11824;DHT22;5969;50.780;7.726;2022-08-04T11:11:32;34.40;85.50
11824;DHT22;5969;50.780;7.726;2022-08-04T11:14:03;34.30;84.40
11824;DHT22;5969;50.780;7.726;2022-08-04T11:16:35;34.40;83.70
11824;DHT22;5969;50.780;7.726;2022-08-04T11:19:14;34.70;83.90
11824;DHT22;5969;50.780;7.726;2022-08-04T11:21:48;35.10;85.30
11824;DHT22;5969;50.780;7.726;2022-08-04T11:24:24;35.40;82.00
11824;DHT22;5969;50.780;7.726;2022-08-04T11:26:59;35.60;81.40
11824;DHT22;5969;50.780;7.726;2022-08-04T11:29:33;35.30;81.00
11824;DHT22;5969;50.780;7.726;2022-08-04T11:32:09;35.20;81.50
11824;DHT22;5969;50.780;7.726;2022-08-04T11:34:46;35.10;80.50
11824;DHT22;5969;50.780;7.726;2022-08-04T11:37:17;35.40;81.30
11824;DHT22;5969;50.780;7.726;2022-08-04T11:39:50;35.70;80.70
11824;DHT22;5969;50.780;7.726;2022-08-04T11:42:20;35.40;79.90
11824;DHT22;5969;50.780;7.726;2022-08-04T11:44:49;35.60;79.60
11824;DHT22;5969;50.780;7.726;2022-08-04T11:47:26;35.60;78.90
11824;DHT22;5969;50.780;7.726;2022-08-04T11:50:01;35.50;78.90
11824;DHT22;5969;50.780;7.726;2022-08-04T11:52:32;35.50;79.80
11824;DHT22;5969;50.780;7.726;2022-08-04T11:55:03;35.70;81.30
11824;DHT22;5969;50.780;7.726;2022-08-04T11:57:35;35.70;79.20
11824;DHT22;5969;50.780;7.726;2022-08-04T12:00:04;35.60;79.60
11824;DHT22;5969;50.780;7.726;2022-08-04T12:03:14;35.50;79.80
11824;DHT22;5969;50.780;7.726;2022-08-04T12:05:53;35.70;79.80
11824;DHT22;5969;50.780;7.726;2022-08-04T12:08:50;35.80;79.60
11824;DHT22;5969;50.780;7.726;2022-08-04T12:11:26;36.10;76.00
11824;DHT22;5969;50.780;7.726;2022-08-04T12:17:11;36.10;72.80
11824;DHT22;5969;50.780;7.726;2022-08-04T12:19:47;36.10;74.80
11824;DHT22;5969;50.780;7.726;2022-08-04T12:22:18;36.10;73.30
11824;DHT22;5969;50.780;7.726;2022-08-04T12:24:52;36.00;73.70
11824;DHT22;5969;50.780;7.726;2022-08-04T12:27:23;35.90;75.80
11824;DHT22;5969;50.780;7.726;2022-08-04T12:29:52;36.20;75.60
11824;DHT22;5969;50.780;7.726;2022-08-04T12:32:23;36.20;74.70
11824;DHT22;5969;50.780;7.726;2022-08-04T12:35:02;36.20;75.10
11824;DHT22;5969;50.780;7.726;2022-08-04T12:37:46;36.10;74.20
11824;DHT22;5969;50.780;7.726;2022-08-04T12:40:17;35.80;74.20
11824;DHT22;5969;50.780;7.726;2022-08-04T12:42:55;35.20;75.60
11824;DHT22;5969;50.780;7.726;2022-08-04T12:45:28;35.10;76.40
11824;DHT22;5969;50.780;7.726;2022-08-04T12:47:57;35.30;78.00
11824;DHT22;5969;50.780;7.726;2022-08-04T12:50:29;35.10;76.20
11824;DHT22;5969;50.780;7.726;2022-08-04T12:52:58;34.90;77.20
11824;DHT22;5969;50.780;7.726;2022-08-04T12:55:28;34.70;78.40
11824;DHT22;5969;50.780;7.726;2022-08-04T12:57:57;34.50;79.10
11824;DHT22;5969;50.780;7.726;2022-08-04T13:00:33;34.30;79.80
11824;DHT22;5969;50.780;7.726;2022-08-04T13:03:05;34.10;79.70
11824;DHT22;5969;50.780;7.726;2022-08-04T13:05:34;34.10;79.20
11824;DHT22;5969;50.780;7.726;2022-08-04T13:08:05;33.90;78.50
11824;DHT22;5969;50.780;7.726;2022-08-04T13:10:38;33.70;79.00
11824;DHT22;5969;50.780;7.726;2022-08-04T13:13:28;33.60;79.40
11824;DHT22;5969;50.780;7.726;2022-08-04T13:15:59;33.50;78.20
11824;DHT22;5969;50.780;7.726;2022-08-04T13:18:28;33.30;78.10
11824;DHT22;5969;50.780;7.726;2022-08-04T13:20:56;33.30;78.80
11824;DHT22;5969;50.780;7.726;2022-08-04T13:23:36;33.40;78.00
11824;DHT22;5969;50.780;7.726;2022-08-04T13:26:04;33.40;77.90
11824;DHT22;5969;50.780;7.726;2022-08-04T13:28:37;33.40;77.90
11824;DHT22;5969;50.780;7.726;2022-08-04T13:31:20;33.50;78.40
11824;DHT22;5969;50.780;7.726;2022-08-04T13:33:50;33.70;78.20
11824;DHT22;5969;50.780;7.726;2022-08-04T13:36:18;33.90;79.00
11824;DHT22;5969;50.780;7.726;2022-08-04T13:38:50;34.10;77.90
11824;DHT22;5969;50.780;7.726;2022-08-04T13:41:18;34.30;78.10
11824;DHT22;5969;50.780;7.726;2022-08-04T13:43:47;34.50;76.40
11824;DHT22;5969;50.780;7.726;2022-08-04T13:46:18;34.60;78.40
11824;DHT22;5969;50.780;7.726;2022-08-04T13:48:46;34.90;78.70
11824;DHT22;5969;50.780;7.726;2022-08-04T13:51:18;34.90;77.20
11824;DHT22;5969;50.780;7.726;2022-08-04T13:53:57;35.00;78.70
11824;DHT22;5969;50.780;7.726;2022-08-04T13:56:29;35.10;78.20
11824;DHT22;5969;50.780;7.726;2022-08-04T13:58:59;34.90;76.90
11824;DHT22;5969;50.780;7.726;2022-08-04T14:01:26;34.90;77.00
11824;DHT22;5969;50.780;7.726;2022-08-04T14:03:58;34.80;77.60
11824;DHT22;5969;50.780;7.726;2022-08-04T14:06:28;34.60;77.30
11824;DHT22;5969;50.780;7.726;2022-08-04T14:08:59;34.70;77.70
11824;DHT22;5969;50.780;7.726;2022-08-04T14:11:33;34.80;76.70
11824;DHT22;5969;50.780;7.726;2022-08-04T14:14:00;34.90;76.50
11824;DHT22;5969;50.780;7.726;2022-08-04T14:16:38;35.00;77.00
11824;DHT22;5969;50.780;7.726;2022-08-04T14:19:19;35.20;76.60
11824;DHT22;5969;50.780;7.726;2022-08-04T14:21:46;35.20;77.60
11824;DHT22;5969;50.780;7.726;2022-08-04T14:24:24;35.10;76.40
11824;DHT22;5969;50.780;7.726;2022-08-04T14:26:51;35.20;78.00
11824;DHT22;5969;50.780;7.726;2022-08-04T14:29:18;35.50;76.90
11824;DHT22;5969;50.780;7.726;2022-08-04T14:31:49;35.80;76.30
11824;DHT22;5969;50.780;7.726;2022-08-04T14:34:25;36.80;77.20
11824;DHT22;5969;50.780;7.726;2022-08-04T14:36:52;39.00;73.70
11824;DHT22;5969;50.780;7.726;2022-08-04T14:39:36;40.60;71.90
11824;DHT22;5969;50.780;7.726;2022-08-04T14:42:04;41.70;72.90
11824;DHT22;5969;50.780;7.726;2022-08-04T14:44:31;41.60;72.10
11824;DHT22;5969;50.780;7.726;2022-08-04T14:47:17;41.50;72.60
11824;DHT22;5969;50.780;7.726;2022-08-04T14:49:53;42.90;70.30
11824;DHT22;5969;50.780;7.726;2022-08-04T14:52:24;42.00;70.70
11824;DHT22;5969;50.780;7.726;2022-08-04T14:54:52;42.00;70.90
11824;DHT22;5969;50.780;7.726;2022-08-04T14:57:19;42.40;70.50
11824;DHT22;5969;50.780;7.726;2022-08-04T14:59:47;42.80;70.00
11824;DHT22;5969;50.780;7.726;2022-08-04T15:02:15;42.50;70.40
11824;DHT22;5969;50.780;7.726;2022-08-04T15:04:42;42.00;70.90
11824;DHT22;5969;50.780;7.726;2022-08-04T15:07:10;39.40;72.80
11824;DHT22;5969;50.780;7.726;2022-08-04T15:09:37;38.20;75.30
11824;DHT22;5969;50.780;7.726;2022-08-04T15:12:06;37.50;76.20
11824;DHT22;5969;50.780;7.726;2022-08-04T15:14:33;36.80;78.70
11824;DHT22;5969;50.780;7.726;2022-08-04T15:17:01;36.40;79.90
11824;DHT22;5969;50.780;7.726;2022-08-04T15:19:28;36.30;79.70
11824;DHT22;5969;50.780;7.726;2022-08-04T15:21:56;35.70;80.90
11824;DHT22;5969;50.780;7.726;2022-08-04T15:24:23;35.70;81.20
11824;DHT22;5969;50.780;7.726;2022-08-04T15:26:52;36.60;80.70
11824;DHT22;5969;50.780;7.726;2022-08-04T15:29:27;36.60;80.80
11824;DHT22;5969;50.780;7.726;2022-08-04T15:31:55;37.50;80.10
11824;DHT22;5969;50.780;7.726;2022-08-04T15:34:22;38.40;80.00
11824;DHT22;5969;50.780;7.726;2022-08-04T15:36:52;39.90;79.50
11824;DHT22;5969;50.780;7.726;2022-08-04T15:39:27;40.50;76.10
11824;DHT22;5969;50.780;7.726;2022-08-04T15:42:00;39.60;77.80
11824;DHT22;5969;50.780;7.726;2022-08-04T15:45:09;39.90;76.50
11824;DHT22;5969;50.780;7.726;2022-08-04T15:47:38;39.90;76.60
11824;DHT22;5969;50.780;7.726;2022-08-04T15:50:07;39.30;77.40
11824;DHT22;5969;50.780;7.726;2022-08-04T15:52:59;38.50;79.10
11824;DHT22;5969;50.780;7.726;2022-08-04T15:55:30;38.30;78.70
11824;DHT22;5969;50.780;7.726;2022-08-04T15:57:58;38.10;77.90
11824;DHT22;5969;50.780;7.726;2022-08-04T16:00:27;36.90;80.10
11824;DHT22;5969;50.780;7.726;2022-08-04T16:02:54;36.50;81.10
11824;DHT22;5969;50.780;7.726;2022-08-04T16:05:34;36.20;82.40
11824;DHT22;5969;50.780;7.726;2022-08-04T16:08:16;35.90;83.20
11824;DHT22;5969;50.780;7.726;2022-08-04T16:10:48;35.30;83.80
11824;DHT22;5969;50.780;7.726;2022-08-04T16:13:16;35.00;84.30
11824;DHT22;5969;50.780;7.726;2022-08-04T16:15:50;34.90;85.00
11824;DHT22;5969;50.780;7.726;2022-08-04T16:18:39;34.50;85.50
11824;DHT22;5969;50.780;7.726;2022-08-04T16:21:20;34.40;85.40
11824;DHT22;5969;50.780;7.726;2022-08-04T16:26:42;34.40;85.80
11824;DHT22;5969;50.780;7.726;2022-08-04T16:32:11;33.90;86.30
11824;DHT22;5969;50.780;7.726;2022-08-04T16:34:40;33.70;86.90
11824;DHT22;5969;50.780;7.726;2022-08-04T16:37:09;33.20;87.20
11824;DHT22;5969;50.780;7.726;2022-08-04T16:39:37;32.90;88.60
11824;DHT22;5969;50.780;7.726;2022-08-04T16:42:33;32.70;88.80
11824;DHT22;5969;50.780;7.726;2022-08-04T16:45:08;32.40;89.40
11824;DHT22;5969;50.780;7.726;2022-08-04T16:48:04;32.20;90.10
11824;DHT22;5969;50.780;7.726;2022-08-04T16:50:33;32.00;90.10
11824;DHT22;5969;50.780;7.726;2022-08-04T16:53:00;31.80;90.40
11824;DHT22;5969;50.780;7.726;2022-08-04T16:55:35;31.80;90.50
11824;DHT22;5969;50.780;7.726;2022-08-04T16:58:03;31.70;90.60
11824;DHT22;5969;50.780;7.726;2022-08-04T17:00:32;31.50;90.80
11824;DHT22;5969;50.780;7.726;2022-08-04T17:03:04;31.40;90.80
11824;DHT22;5969;50.780;7.726;2022-08-04T17:05:32;31.30;91.10
11824;DHT22;5969;50.780;7.726;2022-08-04T17:08:00;31.20;91.50
11824;DHT22;5969;50.780;7.726;2022-08-04T17:10:32;31.10;91.10
11824;DHT22;5969;50.780;7.726;2022-08-04T17:12:59;31.00;90.90
11824;DHT22;5969;50.780;7.726;2022-08-04T17:15:26;30.90;91.00